createdAt,value
2022-12-06T00:00:03.869Z,2.15
2022-12-06T00:03:21.036Z,2.28
2022-12-06T00:06:33.508Z,2.29
2022-12-06T00:09:42.325Z,2.29
2022-12-06T00:12:52.828Z,2.25
2022-12-06T00:16:05.537Z,2.16
2022-12-06T00:19:16.603Z,2.11
2022-12-06T00:22:25.103Z,2.22
2022-12-06T00:25:36.823Z,2.30
2022-12-06T00:28:47.620Z,2.33
2022-12-06T00:31:56.055Z,2.27
2022-12-06T00:35:07.460Z,2.36
2022-12-06T00:38:15.806Z,2.38
2022-12-06T00:41:26.224Z,2.45
2022-12-06T00:44:36.461Z,2.50
2022-12-06T00:47:44.937Z,2.46
2022-12-06T00:50:53.631Z,2.32
2022-12-06T00:54:02.436Z,2.33
2022-12-06T00:57:14.460Z,2.23
2022-12-06T01:00:25.208Z,2.19
2022-12-06T01:03:35.342Z,1.97
2022-12-06T01:06:43.966Z,1.99
2022-12-06T01:09:52.461Z,1.84
2022-12-06T01:13:00.663Z,1.98
2022-12-06T01:16:14.428Z,1.89
2022-12-06T01:19:22.675Z,2.01
2022-12-06T01:22:30.855Z,1.90
2022-12-06T01:25:39.073Z,1.85
2022-12-06T01:28:47.669Z,1.78
2022-12-06T01:31:57.460Z,1.80
2022-12-06T01:35:09.212Z,1.68
2022-12-06T01:38:17.823Z,1.70
2022-12-06T01:41:28.780Z,1.68
2022-12-06T01:44:44.335Z,1.65
2022-12-06T01:47:54.043Z,1.65
2022-12-06T01:51:03.492Z,1.74
2022-12-06T01:54:16.104Z,1.68
2022-12-06T01:57:24.738Z,1.52
2022-12-06T02:00:32.995Z,1.62
2022-12-06T02:03:43.851Z,1.32
2022-12-06T02:06:55.099Z,1.23
2022-12-06T02:10:04.731Z,1.14
2022-12-06T02:13:13.264Z,1.04
2022-12-06T02:16:43.950Z,0.72
2022-12-06T02:20:19.799Z,0.73
2022-12-06T02:24:01.645Z,0.87
2022-12-06T02:27:32.837Z,0.72
2022-12-06T02:30:51.030Z,0.90
2022-12-06T02:34:09.068Z,0.77
2022-12-06T02:37:23.845Z,0.75
2022-12-06T02:40:41.082Z,0.75
2022-12-06T02:43:57.907Z,0.69
2022-12-06T02:47:12.749Z,0.69
2022-12-06T02:50:27.702Z,0.69
2022-12-06T02:53:43.003Z,0.64
2022-12-06T02:56:51.234Z,0.54
2022-12-06T02:59:59.716Z,0.61
2022-12-06T03:03:43.058Z,0.51
2022-12-06T03:07:11.503Z,0.62
2022-12-06T03:10:39.492Z,0.37
2022-12-06T03:14:00.728Z,0.35
2022-12-06T03:17:24.553Z,0.38
2022-12-06T03:20:43.777Z,0.21
2022-12-06T03:23:52.932Z,0.19
2022-12-06T03:27:08.715Z,0.20
2022-12-06T03:30:18.451Z,0.21
2022-12-06T03:33:29.801Z,0.35
2022-12-06T03:36:41.663Z,0.11
2022-12-06T03:40:01.222Z,0.16
2022-12-06T03:43:10.370Z,0.12
2022-12-06T03:46:28.330Z,0.04
2022-12-06T03:49:43.900Z,0.09
2022-12-06T03:52:55.148Z,0.10
2022-12-06T03:56:03.476Z,0.03
2022-12-06T03:59:13.084Z,-0.07
2022-12-06T04:02:21.270Z,-0.02
2022-12-06T04:05:40.753Z,0.28
2022-12-06T04:08:50.804Z,0.41
2022-12-06T04:11:58.957Z,0.55
2022-12-06T04:15:09.889Z,0.64
2022-12-06T04:18:18.676Z,0.76
2022-12-06T04:21:44.666Z,0.81
2022-12-06T04:24:54.524Z,1.01
2022-12-06T04:28:21.467Z,1.18
2022-12-06T04:31:48.402Z,1.24
2022-12-06T04:35:14.071Z,1.30
2022-12-06T04:38:39.778Z,1.06
2022-12-06T04:42:06.849Z,1.17
2022-12-06T04:45:15.046Z,1.06
2022-12-06T04:48:23.818Z,1.12
2022-12-06T04:51:31.975Z,0.96
2022-12-06T04:54:41.516Z,1.02
2022-12-06T04:57:51.124Z,0.94
2022-12-06T05:00:59.524Z,0.77
2022-12-06T05:04:08.010Z,0.76
2022-12-06T05:07:16.566Z,0.64
2022-12-06T05:10:24.911Z,0.65
2022-12-06T05:13:34.907Z,0.57
2022-12-06T05:16:43.412Z,0.80
2022-12-06T05:19:51.606Z,0.75
2022-12-06T05:22:59.800Z,0.83
2022-12-06T05:26:13.440Z,0.98
2022-12-06T05:29:23.193Z,1.11
2022-12-06T05:32:31.406Z,0.96
2022-12-06T05:35:40.830Z,1.01
2022-12-06T05:38:51.592Z,0.89
2022-12-06T05:42:00.144Z,0.78
2022-12-06T05:45:12.139Z,0.73
2022-12-06T05:48:20.512Z,0.70
2022-12-06T05:51:28.726Z,0.80
2022-12-06T05:54:37.126Z,0.70
2022-12-06T05:57:47.403Z,0.67
2022-12-06T06:00:57.082Z,0.64
2022-12-06T06:04:05.671Z,0.54
2022-12-06T06:07:13.990Z,0.49
2022-12-06T06:10:22.523Z,0.38
2022-12-06T06:13:30.786Z,0.27
2022-12-06T06:16:40.430Z,0.22
2022-12-06T06:19:59.072Z,0.43
2022-12-06T06:23:07.474Z,0.39
2022-12-06T06:26:15.815Z,0.40
2022-12-06T06:29:24.635Z,0.51
2022-12-06T06:32:34.247Z,0.55
2022-12-06T06:35:44.385Z,0.55
2022-12-06T06:38:52.596Z,0.48
2022-12-06T06:42:00.838Z,0.49
2022-12-06T06:45:10.456Z,0.45
2022-12-06T06:48:20.310Z,0.38
2022-12-06T06:51:28.585Z,0.33
2022-12-06T06:54:37.044Z,0.41
2022-12-06T06:57:51.478Z,0.37
2022-12-06T07:01:02.534Z,0.43
2022-12-06T07:04:12.236Z,0.42
2022-12-06T07:07:21.493Z,0.47
2022-12-06T07:10:31.549Z,0.47
2022-12-06T07:13:45.664Z,0.40
2022-12-06T07:16:56.579Z,0.58
2022-12-06T07:20:08.261Z,0.71
2022-12-06T07:23:17.049Z,0.89
2022-12-06T07:26:25.700Z,1.01
2022-12-06T07:29:34.097Z,1.22
2022-12-06T07:32:42.570Z,1.15
2022-12-06T07:36:12.473Z,1.37
2022-12-06T07:39:21.578Z,1.26
2022-12-06T07:42:47.202Z,1.45
2022-12-06T07:45:57.200Z,1.52
2022-12-06T07:49:07.795Z,1.46
2022-12-06T07:52:18.247Z,1.71
2022-12-06T07:55:26.551Z,1.65
2022-12-06T07:58:35.218Z,1.57
2022-12-06T08:01:44.308Z,1.52
2022-12-06T08:04:53.268Z,1.57
2022-12-06T08:08:03.366Z,1.40
2022-12-06T08:11:11.633Z,1.40
2022-12-06T08:14:20.012Z,1.39
2022-12-06T08:17:28.706Z,1.40
2022-12-06T08:20:39.451Z,1.39
2022-12-06T08:23:49.204Z,1.46
2022-12-06T08:26:59.315Z,1.40
2022-12-06T08:30:09.455Z,1.63
2022-12-06T08:33:18.176Z,1.88
2022-12-06T08:36:27.790Z,1.87
2022-12-06T08:39:37.479Z,1.91
2022-12-06T08:42:46.012Z,2.08
2022-12-06T08:45:54.604Z,2.32
2022-12-06T08:49:03.129Z,2.36
2022-12-06T08:52:11.578Z,2.64
2022-12-06T08:55:21.413Z,3.05
2022-12-06T08:58:29.897Z,3.44
2022-12-06T09:01:38.885Z,3.72
2022-12-06T09:04:47.556Z,3.79
2022-12-06T09:07:55.998Z,4.13
2022-12-06T09:11:08.052Z,4.07
2022-12-06T09:14:21.993Z,4.32
2022-12-06T09:17:30.733Z,3.98
2022-12-06T09:20:41.497Z,3.93
2022-12-06T09:23:49.991Z,4.20
2022-12-06T09:26:59.633Z,4.28
2022-12-06T09:30:09.733Z,4.30
2022-12-06T09:33:17.909Z,4.35
2022-12-06T09:36:28.881Z,3.80
2022-12-06T09:39:43.863Z,4.26
2022-12-06T09:43:17.413Z,4.31
2022-12-06T09:46:47.278Z,4.66
2022-12-06T09:50:13.161Z,4.68
2022-12-06T09:53:36.279Z,4.83
2022-12-06T09:56:51.086Z,4.56
2022-12-06T10:00:11.999Z,4.83
2022-12-06T10:04:07.950Z,5.04
2022-12-06T10:07:29.717Z,5.11
2022-12-06T10:10:54.656Z,5.25
2022-12-06T10:14:21.825Z,5.24
2022-12-06T10:21:13.721Z,5.24
2022-12-06T10:24:47.673Z,4.87
2022-12-06T10:28:11.778Z,5.04
2022-12-06T10:31:26.466Z,5.18
2022-12-06T10:34:51.303Z,5.27
2022-12-06T10:38:17.366Z,5.27
2022-12-06T10:41:33.114Z,5.32
2022-12-06T10:44:50.695Z,5.44
2022-12-06T10:48:04.124Z,5.22
2022-12-06T10:51:20.164Z,5.35
2022-12-06T10:54:39.287Z,5.27
2022-12-06T10:57:58.685Z,5.13
2022-12-06T11:01:14.778Z,5.30
2022-12-06T11:04:29.790Z,5.35
2022-12-06T11:07:44.839Z,5.21
2022-12-06T11:10:57.613Z,5.22
2022-12-06T11:14:20.166Z,5.24
2022-12-06T11:17:33.507Z,5.25
2022-12-06T11:20:50.832Z,5.17
2022-12-06T11:24:14.147Z,5.14
2022-12-06T11:27:34.612Z,5.19
2022-12-06T11:30:42.885Z,5.21
2022-12-06T11:33:51.401Z,5.08
2022-12-06T11:37:02.663Z,5.01
2022-12-06T11:40:26.036Z,5.12
2022-12-06T11:43:37.000Z,5.05
2022-12-06T11:46:45.616Z,4.93
2022-12-06T11:50:00.415Z,5.06
2022-12-06T11:53:22.774Z,5.15
2022-12-06T11:56:35.617Z,5.19
2022-12-06T12:00:17.275Z,5.27
2022-12-06T12:03:29.889Z,5.30
2022-12-06T12:06:38.912Z,5.17
2022-12-06T12:09:53.841Z,5.22
2022-12-06T12:13:39.108Z,5.04
2022-12-06T12:16:55.048Z,5.20
2022-12-06T12:20:08.610Z,5.12
2022-12-06T12:23:23.616Z,5.03
2022-12-06T12:26:42.636Z,4.93
2022-12-06T12:30:24.653Z,4.86
2022-12-06T12:33:34.317Z,4.80
2022-12-06T12:36:49.493Z,4.42
2022-12-06T12:39:57.861Z,4.20
2022-12-06T12:43:09.870Z,4.16
2022-12-06T12:46:23.141Z,4.17
2022-12-06T12:49:36.641Z,4.08
2022-12-06T12:52:45.173Z,3.98
2022-12-06T12:56:08.364Z,4.14
2022-12-06T12:59:19.780Z,4.18
2022-12-06T13:02:31.443Z,4.11
2022-12-06T13:05:46.674Z,4.06
2022-12-06T13:09:00.397Z,3.92
2022-12-06T13:12:18.291Z,3.84
2022-12-06T13:15:36.912Z,3.74
2022-12-06T13:18:52.189Z,3.59
2022-12-06T13:22:05.873Z,3.50
2022-12-06T13:25:14.305Z,3.48
2022-12-06T13:28:30.103Z,3.42
2022-12-06T13:31:40.996Z,3.40
2022-12-06T13:34:56.929Z,3.33
2022-12-06T13:38:27.168Z,3.45
2022-12-06T13:42:16.001Z,3.48
2022-12-06T13:45:47.013Z,3.51
2022-12-06T13:48:57.430Z,3.54
2022-12-06T13:52:06.211Z,3.59
2022-12-06T13:55:59.087Z,3.70
2022-12-06T13:59:40.710Z,3.72
2022-12-06T14:02:49.468Z,3.70
2022-12-06T14:06:13.791Z,3.63
2022-12-06T14:09:28.554Z,3.55
2022-12-06T14:12:38.160Z,3.65
2022-12-06T14:15:53.226Z,3.68
2022-12-06T14:19:04.344Z,3.79
2022-12-06T14:22:22.828Z,3.75
2022-12-06T14:25:31.482Z,3.82
2022-12-06T14:28:41.568Z,3.83
2022-12-06T14:31:52.950Z,3.95
2022-12-06T14:35:08.121Z,3.88
2022-12-06T14:38:25.119Z,3.66
2022-12-06T14:41:56.231Z,3.80
2022-12-06T14:45:14.617Z,3.84
2022-12-06T14:48:24.297Z,3.74
2022-12-06T14:51:37.972Z,3.81
2022-12-06T14:54:46.986Z,3.82
2022-12-06T14:57:59.668Z,3.83
2022-12-06T15:01:19.217Z,3.75
2022-12-06T15:04:36.010Z,3.69
2022-12-06T15:07:44.731Z,3.62
2022-12-06T15:10:58.322Z,3.57
2022-12-06T15:14:18.665Z,3.62
2022-12-06T15:17:28.276Z,3.56
2022-12-06T15:20:36.719Z,3.55
2022-12-06T15:23:50.760Z,3.53
2022-12-06T15:26:59.208Z,3.47
2022-12-06T15:30:10.375Z,3.53
2022-12-06T15:33:23.815Z,3.55
2022-12-06T15:36:33.324Z,3.56
2022-12-06T15:39:42.076Z,3.65
2022-12-06T15:42:50.665Z,3.56
2022-12-06T15:46:01.810Z,3.50
2022-12-06T15:49:16.541Z,3.44
2022-12-06T15:52:24.782Z,3.34
2022-12-06T15:55:33.122Z,3.35
2022-12-06T15:58:41.572Z,3.22
2022-12-06T16:01:51.943Z,3.29
2022-12-06T16:05:01.869Z,3.24
2022-12-06T16:08:10.254Z,3.23
2022-12-06T16:11:21.825Z,3.23
2022-12-06T16:14:30.035Z,3.29
2022-12-06T16:17:38.510Z,3.25
2022-12-06T16:20:49.316Z,3.30
2022-12-06T16:24:18.944Z,3.26
2022-12-06T16:27:27.291Z,3.11
2022-12-06T16:30:36.752Z,2.97
2022-12-06T16:33:46.733Z,2.79
2022-12-06T16:37:01.039Z,2.90
2022-12-06T16:40:20.995Z,2.73
2022-12-06T16:43:29.221Z,2.72
2022-12-06T16:46:39.333Z,2.68
2022-12-06T16:49:49.100Z,2.67
2022-12-06T16:52:59.261Z,2.67
2022-12-06T16:56:08.271Z,2.60
2022-12-06T16:59:19.268Z,2.59
2022-12-06T17:02:30.258Z,2.41
2022-12-06T17:05:38.603Z,2.36
2022-12-06T17:08:48.812Z,2.33
2022-12-06T17:12:07.652Z,2.34
2022-12-06T17:15:18.716Z,2.31
2022-12-06T17:18:26.869Z,2.18
2022-12-06T17:21:36.131Z,2.24
2022-12-06T17:24:46.071Z,2.25
2022-12-06T17:27:55.400Z,2.19
2022-12-06T17:31:07.799Z,2.30
2022-12-06T17:34:17.331Z,2.26
2022-12-06T17:37:25.573Z,2.30
2022-12-06T17:40:35.176Z,2.36
2022-12-06T17:43:42.532Z,2.38
2022-12-06T17:46:51.491Z,2.42
2022-12-06T17:50:00.090Z,2.42
2022-12-06T17:53:10.165Z,2.49
2022-12-06T17:56:29.277Z,2.47
2022-12-06T17:59:37.554Z,2.49
2022-12-06T18:02:45.997Z,2.48
2022-12-06T18:05:54.479Z,2.51
2022-12-06T18:09:04.353Z,2.60
2022-12-06T18:12:19.476Z,2.48
2022-12-06T18:15:40.032Z,2.50
2022-12-06T18:18:52.215Z,2.51
2022-12-06T18:22:00.601Z,2.53
2022-12-06T18:25:10.287Z,2.57
2022-12-06T18:28:20.064Z,2.48
2022-12-06T18:31:31.088Z,2.48
2022-12-06T18:34:39.699Z,2.45
2022-12-06T18:37:48.005Z,2.53
2022-12-06T18:41:03.801Z,2.60
2022-12-06T18:44:14.723Z,2.51
2022-12-06T18:47:23.171Z,2.48
2022-12-06T18:50:33.158Z,2.52
2022-12-06T18:53:41.554Z,2.58
2022-12-06T18:56:49.928Z,2.61
2022-12-06T18:59:59.975Z,2.61
2022-12-06T19:03:08.889Z,2.53
2022-12-06T19:06:22.525Z,2.62
2022-12-06T19:09:30.849Z,2.68
2022-12-06T19:12:39.232Z,2.68
2022-12-06T19:15:48.978Z,2.68
2022-12-06T19:19:00.395Z,2.66
2022-12-06T19:22:09.333Z,2.64
2022-12-06T19:25:18.393Z,2.65
2022-12-06T19:28:26.662Z,2.65
2022-12-06T19:31:36.993Z,2.72
2022-12-06T19:34:45.596Z,2.64
2022-12-06T19:37:53.825Z,2.68
2022-12-06T19:41:04.767Z,2.68
2022-12-06T19:44:15.337Z,2.58
2022-12-06T19:47:25.079Z,2.61
2022-12-06T19:50:35.335Z,2.61
2022-12-06T19:53:44.494Z,2.56
2022-12-06T19:56:54.742Z,2.58
2022-12-06T20:00:03.819Z,2.62
2022-12-06T20:03:21.873Z,2.60
2022-12-06T20:06:30.179Z,2.71
2022-12-06T20:09:39.378Z,2.65
2022-12-06T20:12:47.636Z,2.63
2022-12-06T20:16:02.662Z,2.63
2022-12-06T20:19:15.402Z,2.60
2022-12-06T20:22:24.043Z,2.67
2022-12-06T20:25:32.331Z,2.61
2022-12-06T20:28:40.561Z,2.63
2022-12-06T20:31:51.183Z,2.67
2022-12-06T20:35:00.949Z,2.68
2022-12-06T20:38:09.351Z,2.63
2022-12-06T20:41:21.154Z,2.69
2022-12-06T20:44:29.571Z,2.74
2022-12-06T20:47:37.818Z,2.71
2022-12-06T20:50:47.784Z,2.67
2022-12-06T20:53:59.341Z,2.67
2022-12-06T20:57:08.418Z,2.62
2022-12-06T21:00:18.054Z,2.59
2022-12-06T21:03:27.997Z,2.65
2022-12-06T21:06:37.577Z,2.72
2022-12-06T21:09:45.922Z,2.73
2022-12-06T21:12:54.258Z,2.67
2022-12-06T21:16:04.612Z,2.63
2022-12-06T21:19:17.094Z,2.69
2022-12-06T21:22:26.693Z,2.64
2022-12-06T21:25:38.511Z,2.53
2022-12-06T21:28:46.760Z,2.55
2022-12-06T21:31:55.344Z,2.62
2022-12-06T21:35:03.710Z,2.65
2022-12-06T21:38:14.370Z,2.68
2022-12-06T21:41:23.159Z,2.64
2022-12-06T21:44:31.461Z,2.58
2022-12-06T21:47:40.065Z,2.62
2022-12-06T21:50:48.308Z,2.69
2022-12-06T21:53:58.674Z,2.65
2022-12-06T21:57:07.083Z,2.66
2022-12-06T22:00:16.720Z,2.63
2022-12-06T22:03:24.995Z,2.57
2022-12-06T22:06:33.942Z,2.62
2022-12-06T22:09:44.149Z,2.65
2022-12-06T22:12:52.438Z,2.54
2022-12-06T22:16:02.997Z,2.65
2022-12-06T22:19:11.460Z,2.61
2022-12-06T22:22:20.375Z,2.63
2022-12-06T22:25:30.038Z,2.64
2022-12-06T22:28:38.678Z,2.60
2022-12-06T22:31:47.109Z,2.52
2022-12-06T22:34:55.547Z,2.47
2022-12-06T22:38:03.834Z,2.48
2022-12-06T22:41:14.389Z,2.42
2022-12-06T22:44:22.744Z,2.43
2022-12-06T22:47:31.039Z,2.37
2022-12-06T22:50:39.372Z,2.36
2022-12-06T22:53:52.872Z,2.26
2022-12-06T22:57:02.574Z,2.33
2022-12-06T23:00:12.299Z,2.30
2022-12-06T23:03:20.554Z,2.37
2022-12-06T23:06:29.945Z,2.46
2022-12-06T23:09:38.630Z,2.53
2022-12-06T23:12:48.213Z,2.47
2022-12-06T23:15:58.818Z,2.46
2022-12-06T23:19:07.164Z,2.45
2022-12-06T23:22:15.444Z,2.42
2022-12-06T23:25:23.638Z,2.46
2022-12-06T23:28:34.164Z,2.52
2022-12-06T23:31:45.606Z,2.52
2022-12-06T23:34:53.918Z,2.51
2022-12-06T23:38:02.139Z,2.52
2022-12-06T23:41:13.360Z,2.53
2022-12-06T23:44:25.210Z,2.48
2022-12-06T23:47:33.450Z,2.58
2022-12-06T23:50:42.142Z,2.52
2022-12-06T23:53:53.307Z,2.59
2022-12-06T23:57:01.534Z,2.54
